Pagrindinis puslapis
METAR-TAF:

METAR-TAF

Oro uostai :

Praha, Čekija

platuma: 50-06N, ilguma: 014-15E, Aukštis: 365 m

Dabartinis oras

Ataskaita buvo paskelbta 14 minutes, ne 23:00 UTC
Vėjas 2 kt nuo kintamojo kryptimis
Temperatūra 6°C
Drėgmė 75%
Slėgis 1027 hPa
Matomumas 10 km arba daugiau
nėra debesų žemiau 1500 m ir nėra kamuolinių lietaus debesų

METAR: LKPR 202300Z VRB02KT CAVOK 06/02 Q1027 NOSIG

Laikas: 01:14 (23:14 UTC)

Prognozė

Ataskaita buvo paskelbta 6 valandos ir 14 minutes, ne 17:00 UTC
Prognozė galioja nuo 20 metu 18 UTC su 22 metu 00 UTC
Vėjas 2 kt nuo kintamojo kryptimis
Matomumas 10 km arba daugiau
nėra debesų žemiau 1500 m ir nėra kamuolinių lietaus debesų
Tapsmas
nuo 21 metu 06 UTC su 21 metu 09 UTC
Vėjas 6 kt iš Pietryčių

TAF: LKPR 201700Z 2018/2200 VRB02KT CAVOK BECMG 2106/2109 14006KT

Orai ataskaitas ir orų prognozės (METAR, TAF).

turimą stotys yra geltonos ir raudonos taškus žemėlapyje.

Perkelti pele per norėdami pamatyti stoties vardą.

Tada spustelėkite, norėdami matyti oro stebėjimo ir prognozės.

Norėdami pakeisti žemėlapį: spustelėkite ant žalios mygtukų su juodo kryžiaus žemyn,; žalią mygtuką su brūkšneliu, jei norite nutolinti; arba žalių rodyklių gretimoms žemėlapius.


METAR-TAF: